Arcadia, Texas
Current Conditions -  °F | °C
As of 8:53 PM on Monday 20 Oct 2014 (Local Time) from KLVJ Reporting Station
Clear Clear  
Wind Chill: 71°   Ceiling: Unl
Heat Index: 71°   Visibility: 10mi
Dew Point: 63°   Wind: 5mph
Humidity: 75%   Direction: 80°E
Pressure: 30.02"   Gusts: NA
Location:  29.3723°N, 95.1328°W
Report Text: KLVJ 210153Z AUTO 08004KT 10SM CLR 22/17 A3002 RMK AO2 SLP163 T02170172
Loading
Personal Weather Stations






























Interactive Weather Map
Tropical Storm Tracking
New forecast layout! Learn more

10-Day Weather Forecast

Advertisements
Track Severe Weather on mobile